Tiempo atmosférico en la estación meteorológica de El Bodón Base Aérea, Salamanca (805 m.)



Fecha
DESCASC
Temp. máxima en grados centígrados (hora)
DESCASC
Temp. mínima en grados centígrados (hora)
DESCASC
Temp. media en grados centígrados
DESCASC
Racha de viento máxima en m/sg (hora)
DESCASC
Velocidad máxima media en intervalos de 10 minutos(hora)
DESCASC
Precipitaciones diarias en mm
DESCASC
Precipitaciones de 00:00 a 06:00 en mm
DESCASC
Precipitaciones de 06:00 a 12:00 en mm
DESCASC
Precipitaciones de 12:00 a 18:00 en mm
DESCASC
Precipitaciones de 18:00 a 24:00 en mm
DESCASC
19-12-2019 12.3 (22:30) 8.7 (09:30) 10.5 26.39 (18:00) 17.5 (17:40) 73.4 8.2 20.4 10.6 34.2
20-12-2019 12.9 (19:40) 7.8 (00:00) 10.3 18.33 (00:20) 12.22 (00:20) 11.2 3.2 1.6 5.2 1.2
14-01-2020 6.7 (23:50) 1.3 (00:00) 4 13.61 (23:40) 8.61 (23:50) 0.6 0 0 0 0.6
16-01-2020 10 (15:00) 5.9 (00:00) 8 16.39 (18:10) 10.83 (18:10) 0.6 0.2 0 0 0.4
15-01-2020 8.9 (16:10) 5.6 (00:00) 7.2 15.28 (03:20) 10.28 (02:50) 3.2 0.2 2.8 0 0.2
17-01-2020 10.7 (15:50) 4.4 (00:00) 7.5 6.39 (13:30) 4.44 (03:40) 0.2 0 0.2 0 0
13-01-2020 9.1 (14:10) -2.2 (-00:0) 3.5 9.17 (14:40) 6.39 (14:20) 0 0 0 0 0
12-01-2020 8.9 (16:10) -3.9 (08:10) 2.5 4.17 (01:00) 3.33 (01:00) 0 0 0 0 0
11-01-2020 8.4 (15:30) -3.9 (-00:0) 2.2 4.72 (00:10) 3.06 (23:59) 0 0 0 0 0
10-01-2020 7.7 (14:50) 0 (00:00) 3.8 9.72 (15:50) 6.11 (15:20) 0 0 0 0 0
09-01-2020 13.2 (16:40) -1.2 (-00:0) 6 10 (18:40) 6.39 (18:40) 0.2 0.2 0 0 0
08-01-2020 2.3 (16:50) -4 (-00:0) -0.9 3.06 (22:40) 2.22 (23:20) 0.2 0 0.2 0 0
07-01-2020 3 (17:30) -3.5 (-00:0) -0.3 3.61 (14:40) 2.22 (14:40) 0 0 0 0 0
06-01-2020 6.8 (16:30) -4 (-00:0) 1.4 3.89 (14:30) 2.78 (16:10) 0.4 0.2 0 0.2 0
05-01-2020 1.5 (16:50) -2 (-00:0) -0.3 3.61 (00:30) 2.78 (00:30) 0 0 0 0 0
04-01-2020 7.4 (15:00) -0.4 (00:00) 3.5 11.39 (17:00) 7.22 (15:20) 0 0 0 0 0
03-01-2020 8.7 (16:30) 1.1 (00:00) 4.9 5.28 (16:40) 3.61 (16:40) 0 0 0 0 0
02-01-2020 12.8 (14:20) -0.5 (-00:0) 6.2 7.78 (12:10) 5.28 (15:10) 0 0 0 0 0
01-01-2020 13.5 (13:40) -1.5 (-00:0) 6 4.44 (06:30) 3.61 (06:20) 0 0 0 0 0
31-12-2019 -- (--) -- (--) -- -- (--) -- (--) -- -- -- 0 0
29-12-2019 12.5 (16:50) -1.6 (-00:0) 5.4 3.89 (07:20) 3.33 (07:20) 0.2 0 0 0.2 0
28-12-2019 6.8 (17:40) -1.5 (-00:0) 2.7 3.33 (21:00) 2.5 (21:20) 0.2 0.2 0 0 0
27-12-2019 4.1 (17:30) 0.5 (00:00) 2.3 2.78 (13:50) 1.67 (00:30) 0.2 0 0.2 0 0
26-12-2019 11.6 (15:00) 3 (00:00) 7.3 6.94 (14:50) 4.17 (15:00) 0 0 0 0 0
25-12-2019 15.5 (12:50) 8 (00:00) 11.8 11.67 (13:50) 6.67 (13:00) 0 0 0 0 0
24-12-2019 16.1 (15:10) 4.6 (07:10) 10.4 6.11 (23:40) 4.17 (23:59) 0 0 0 0 0
23-12-2019 15.4 (15:50) 1 (00:00) 8.2 4.72 (09:40) 3.33 (08:00) 0 0 0 0 0
22-12-2019 13.1 (15:30) 5.5 (23:59) 9.3 16.94 (02:10) 9.44 (01:20) 1.8 0.2 0.6 1 0
21-12-2019 14.6 (13:40) 9.7 (21:30) 12.2 22.78 (14:40) 13.61 (14:20) 0.6 0.2 0.4 0 0
30-12-2019 -- (--) -- (--) -- -- (--) -- (--) -- 0 0 0 --

Gráficas

Temp. máximas Temp. mínimas Temp. medias Precipitaciones Rachas de viento máximas Velocidades máximas media en intervalos de 10 minutos

Datos horarios

Fecha y hora oficial Temperatura (ºC) Velocidad del viento (km/h) Dirección del viento Racha (km/h) Dirección de racha Precipitación (mm) Presión (hPa) Tendencia (hPa) Humedad (%)
2020-01-17 23:00:00 5.7 8 Sur 14 Sur 0 -- -- 92
2020-01-17 22:00:00 6 8 Sur 13 Sur 0 -- -- 90
2020-01-17 21:00:00 6 5 Sur 11 Sudeste 0 -- -- 88
2020-01-17 20:00:00 6.5 6 Sudeste 14 Sur 0 -- -- 82
2020-01-17 19:00:00 6.9 0 Calma 5 Este 0 -- -- 72
2020-01-17 18:00:00 9.3 0 Calma 7 Noroeste 0 -- -- 57
2020-01-17 17:00:00 10.7 3 Noroeste 13 Noroeste 0 -- -- 52
2020-01-17 16:00:00 10.7 8 Oeste 16 Sudoeste 0 -- -- 60
2020-01-17 15:00:00 10.3 11 Oeste 20 Sudoeste 0 -- -- 62
2020-01-17 14:00:00 9.3 11 Noroeste 23 Oeste 0 -- -- 65
2020-01-17 13:00:00 8.8 10 Noroeste 22 Noroeste 0 -- -- 72
2020-01-17 12:00:00 9.1 11 Oeste 18 Oeste 0 -- -- 77
2020-01-17 11:00:00 8 10 Oeste 20 Oeste 0 -- -- 83
2020-01-17 10:00:00 6.8 8 Oeste 17 Oeste 0 -- -- 96
2020-01-17 09:00:00 6.6 6 Oeste 21 Sudoeste 0.2 -- -- 97
2020-01-17 08:00:00 6.4 9 Sudoeste 16 Sur 0 -- -- 96
2020-01-17 07:00:00 6.3 10 Sur 19 Sur 0 -- -- 96
2020-01-17 06:00:00 6.1 11 Sur 20 Sudoeste 0 -- -- 97
2020-01-17 05:00:00 5.3 10 Sur 19 Sur 0 -- -- 97
2020-01-17 04:00:00 4.6 13 Sur 23 Sur 0 -- -- 96
2020-01-17 03:00:00 4.5 10 Sudeste 18 Sur 0 -- -- 96
2020-01-17 02:00:00 4.7 13 Sur 20 Sur 0 -- -- 96
2020-01-17 01:00:00 4.9 11 Sur 19 Sur 0 -- -- 96
2020-01-17 00:00:00 5.9 14 Sur 20 Sur 0 -- -- 95
2020-01-16 23:00:00 6.9 12 Sur 36 Sur 0 -- -- 93
2020-01-16 22:00:00 8 20 Sur 39 Sur 0 -- -- 92
2020-01-16 21:00:00 8.1 23 Sur 48 Sur 0.4 -- -- 90
2020-01-16 20:00:00 8.6 27 Sur 53 Sur 0 -- -- 85
2020-01-16 19:00:00 9.2 30 Sur 59 Sur 0 -- -- 79
2020-01-16 18:00:00 9 36 Sur 57 Sur 0 -- -- 81
2020-01-16 17:00:00 9.1 28 Sur 50 Sur 0 -- -- 79
2020-01-16 16:00:00 9.4 29 Sur 49 Sur 0 -- -- 78
2020-01-16 15:00:00 10 29 Sur 53 Sur 0 -- -- 78
2020-01-16 14:00:00 9.3 25 Sur 50 Sur 0 -- -- 80
2020-01-16 13:00:00 9.2 36 Sur 50 Sur 0 -- -- 82
2020-01-16 12:00:00 8.5 33 Sur 51 Sur 0 -- -- 87
2020-01-16 11:00:00 8.3 30 Sur 45 Sur 0 -- -- 90
2020-01-16 10:00:00 8 19 Sur 39 Sur 0 -- -- 94
2020-01-16 09:00:00 8.1 19 Sur 40 Sur 0 -- -- 98
2020-01-16 08:00:00 8.1 19 Sur 33 Sur 0 -- -- 99
2020-01-16 07:00:00 8 20 Sur 32 Sur 0 -- -- 99
2020-01-16 06:00:00 7.9 17 Sur 36 Sur 0.2 -- -- 99
2020-01-16 05:00:00 8 18 Sur 39 Sur 0 -- -- 100
2020-01-16 04:00:00 7.8 23 Sur 39 Sur 0 -- -- 99
2020-01-16 03:00:00 8 23 Sur 39 Sur 0 -- -- 99
2020-01-16 02:00:00 7.9 24 Sur 40 Sur 0 -- -- 99
2020-01-16 01:00:00 8.1 19 Sur 42 Sur 0 -- -- 99
2020-01-16 00:00:00 8.1 22 Sur 39 Sur 0 -- -- 99
2020-01-15 23:00:00 8.1 20 Sur 38 Sudeste 0 -- -- 98
2020-01-15 22:00:00 8.2 21 Sur 38 Sur 0 -- -- 97
2020-01-15 21:00:00 8 20 Sur 34 Sur 0 -- -- 96
2020-01-15 20:00:00 8 18 Sur 28 Sur 0 -- -- 96
2020-01-15 19:00:00 8.4 15 Sur 32 Sur 0.2 -- -- 96
2020-01-15 18:00:00 8.3 14 Sur 33 Sur 0 -- -- 95
2020-01-15 17:00:00 8.7 16 Sur 35 Sur 0 -- -- 93
2020-01-15 16:00:00 8.6 21 Sur 37 Sur 0 -- -- 93
2020-01-15 15:00:00 8.5 22 Sur 39 Sur 0 -- -- 91
2020-01-15 14:00:00 8.8 22 Sur 38 Sur 0 -- -- 94
2020-01-15 13:00:00 8.1 18 Sur 36 Sur 0 -- -- 95
2020-01-15 12:00:00 6.9 21 Sur 32 Sur 0.6 -- -- 96
2020-01-15 11:00:00 6.5 23 Sur 42 Sur 1.6 -- -- 96
2020-01-15 10:00:00 6.4 27 Sur 44 Sur 0.2 -- -- 96
2020-01-15 09:00:00 6.1 27 Sur 40 Sur 0 -- -- 96
2020-01-15 08:00:00 5.7 23 Sur 44 Sur 0.2 -- -- 96
2020-01-15 07:00:00 5.6 30 Sur 51 Sur 0.2 -- -- 95
2020-01-15 06:00:00 6 33 Sur 52 Sur 0.2 -- -- 96
2020-01-15 05:00:00 6.4 25 Sur 45 Sur 0 -- -- 94
2020-01-15 04:00:00 7 29 Sur 55 Sur 0 -- -- 92
2020-01-15 03:00:00 6.9 34 Sur 51 Sur 0 -- -- 92
2020-01-15 02:00:00 6.8 30 Sur 48 Sur 0 -- -- 93
2020-01-15 01:00:00 6.8 28 Sur 47 Sur 0 -- -- 95
2020-01-15 00:00:00 6.6 30 Sur 49 Sur 0 -- -- 96
2020-01-14 23:00:00 6.5 21 Sur 40 Sur 0.4 -- -- 96
2020-01-14 22:00:00 5.8 15 Sur 30 Sur 0.2 -- -- 96
2020-01-14 21:00:00 5.3 16 Sur 35 Sur 0 -- -- 96
2020-01-14 20:00:00 5.3 25 Sur 38 Sur 0 -- -- 96
2020-01-14 19:00:00 5.1 20 Sur 33 Sur 0 -- -- 95
2020-01-14 18:00:00 5.3 19 Sur 37 Sur 0 -- -- 91
2020-01-14 17:00:00 5.8 21 Sur 39 Sur 0 -- -- 87
2020-01-14 16:00:00 5.9 21 Sur 38 Sur 0 -- -- 88
2020-01-14 15:00:00 5.1 20 Sur 39 Sur 0 -- -- 88
2020-01-14 14:00:00 4.8 21 Sur 38 Sur 0 -- -- 92
2020-01-14 13:00:00 4.9 16 Sur 31 Sur 0 -- -- 87
2020-01-14 12:00:00 4.9 15 Sur 27 Sudeste 0 -- -- 88
2020-01-14 11:00:00 4.3 17 Sur 29 Sur 0 -- -- 86
2020-01-14 10:00:00 4.1 17 Sur 31 Sur 0 -- -- 86
2020-01-14 09:00:00 3.9 19 Sur 29 Sur 0 -- -- 87
2020-01-14 08:00:00 4.1 10 Sudeste 18 Sudeste 0 -- -- 89
2020-01-14 07:00:00 4 12 Sur 18 Sur 0 -- -- 88
2020-01-14 06:00:00 3.6 8 Sudeste 18 Sudeste 0 -- -- 89
2020-01-14 05:00:00 3.2 12 Sudeste 19 Sudeste 0 -- -- 88
2020-01-14 04:00:00 2.7 8 Sudeste 19 Sur 0 -- -- 91
2020-01-14 03:00:00 1.4 6 Sur 13 Sur 0 -- -- 91
2020-01-14 02:00:00 2.4 10 Sur 19 Sur 0 -- -- 88
2020-01-14 01:00:00 2.7 12 Sur 15 Sur 0 -- -- 90
2020-01-14 00:00:00 2.4 5 Sur 12 Sur 0 -- -- 89
2020-01-13 23:00:00 3 3 Sur 12 Sur 0 -- -- 89
2020-01-13 22:00:00 2.4 7 Sudeste 16 Sudoeste 0 -- -- 87
2020-01-13 21:00:00 2.3 8 Sudoeste 31 Sur 0 -- -- 82
2020-01-13 20:00:00 3 16 Sur 30 Sur 0 -- -- 85
2020-01-13 19:00:00 3.8 17 Sur 25 Sur 0 -- -- 81
2020-01-13 18:00:00 6.1 14 Sur 30 Sur 0 -- -- 65
2020-01-13 17:00:00 7.8 15 Sur 28 Sur 0 -- -- 63
2020-01-13 16:00:00 8.5 22 Sur 33 Sur 0 -- -- 60
2020-01-13 15:00:00 8.5 15 Sur 33 Sur 0 -- -- 61
2020-01-13 14:00:00 8.8 19 Sur 30 Sur 0 -- -- 61
2020-01-13 13:00:00 7.1 15 Sur 25 Sur 0 -- -- 70
2020-01-13 12:00:00 6.3 9 Sur 23 Sur 0 -- -- 75
2020-01-13 11:00:00 4.8 13 Sur 21 Sur 0 -- -- 82
2020-01-13 10:00:00 1.6 7 Sur 14 Sur 0 -- -- 94
2020-01-13 09:00:00 0.5 8 Sur 15 Sur 0 -- -- 92
2020-01-13 08:00:00 1.2 9 Sur 17 Sur 0 -- -- 93
2020-01-13 07:00:00 0.5 7 Sur 15 Sur 0 -- -- 94
2020-01-13 06:00:00 -0.1 12 Sur 15 Sur 0 -- -- 94
2020-01-13 05:00:00 -1.9 8 Sudeste 13 Sur 0 -- -- 92
2020-01-13 04:00:00 -1.8 7 Sur 10 Sur 0 -- -- 91
2020-01-13 03:00:00 -2.1 6 Sur 12 Sur 0 -- -- 93
2020-01-13 02:00:00 -1.9 9 Sur 11 Sur 0 -- -- 93
2020-01-13 01:00:00 -0.7 5 Sur 8 Sur 0 -- -- 92
2020-01-13 00:00:00 0 4 Sudoeste 8 Sur 0 -- -- 92
2020-01-12 23:00:00 -0.1 5 Sur 13 Sur 0 -- -- 93
2020-01-12 22:00:00 0.6 9 Sur 12 Sur 0 -- -- 90
2020-01-12 21:00:00 3 0 Calma 4 Norte 0 -- -- 85
2020-01-12 20:00:00 4.5 3 Norte 5 Norte 0 -- -- 81
2020-01-12 19:00:00 5.8 3 Noroeste 7 Noroeste 0 -- -- 76
2020-01-12 18:00:00 8.2 4 Noroeste 11 Noroeste 0 -- -- 68
2020-01-12 17:00:00 8.6 8 Norte 14 Nordeste 0 -- -- 62
2020-01-12 16:00:00 8.7 6 Norte 10 Norte 0 -- -- 60
2020-01-12 15:00:00 8.1 5 Norte 11 Norte 0 -- -- 56
2020-01-12 14:00:00 7.2 6 Nordeste 12 Norte 0 -- -- 64
2020-01-12 13:00:00 6.9 3 Norte 5 Noroeste 0 -- -- 73
2020-01-12 12:00:00 4.4 3 Sur 8 Sudeste 0 -- -- 84
2020-01-12 11:00:00 1.5 5 Sur 8 Sur 0 -- -- 89
2020-01-12 10:00:00 -1.5 0 Calma 11 Sur 0 -- -- 92
2020-01-12 09:00:00 -3.1 10 Sur 12 Sur 0 -- -- 94
2020-01-12 08:00:00 -3.8 10 Sur 14 Sudeste 0 -- -- 93
2020-01-12 07:00:00 -2.9 9 Sur 13 Sur 0 -- -- 95
2020-01-12 06:00:00 -3 10 Sur 13 Sur 0 -- -- 94
2020-01-12 05:00:00 -2.6 8 Sur 13 Sur 0 -- -- 95
2020-01-12 04:00:00 -2.3 11 Sur 14 Sudeste 0 -- -- 94
2020-01-12 03:00:00 -1.3 5 Sur 9 Sur 0 -- -- 93
2020-01-12 02:00:00 -1.2 6 Sur 14 Sur 0 -- -- 95
2020-01-12 01:00:00 -1.5 12 Sur 15 Sur 0 -- -- 94
2020-01-12 00:00:00 -1 11 Sur 14 Sur 0 -- -- 93
2020-01-11 23:00:00 0 4 Sur 6 Sur 0 -- -- 91
2020-01-11 22:00:00 1.4 0 Calma -- -- 0 -- -- 88
2020-01-11 21:00:00 2.4 0 Calma 3 Norte 0 -- -- 83
2020-01-11 20:00:00 4.2 2 Norte 7 Noroeste 0 -- -- 78
2020-01-11 19:00:00 5.5 0 Calma 4 Nordeste 0 -- -- 73
2020-01-11 18:00:00 7.7 3 Norte 9 Norte 0 -- -- 66
2020-01-11 17:00:00 8.3 5 Norte 12 Norte 0 -- -- 68
2020-01-11 16:00:00 8.3 8 Norte 14 Nordeste 0 -- -- 69
2020-01-11 15:00:00 8.1 7 Norte 12 Norte 0 -- -- 69
2020-01-11 14:00:00 7.4 3 Sudoeste 7 Sudoeste 0 -- -- 69
2020-01-11 13:00:00 4.4 3 Norte 8 Norte 0 -- -- 80
2020-01-11 12:00:00 2.9 5 Norte 9 Norte 0 -- -- 88
2020-01-11 11:00:00 0.6 0 Calma 5 Sur 0 -- -- 93
2020-01-11 10:00:00 -2.2 4 Sur 9 Sur 0 -- -- 95
2020-01-11 09:00:00 -3.8 6 Sur 8 Sur 0 -- -- 95
2020-01-11 08:00:00 -3.5 5 Sur 9 Sur 0 -- -- 95
2020-01-11 07:00:00 -3.3 5 Sur 10 Sur 0 -- -- 94
2020-01-11 06:00:00 -2.9 5 Sur 9 Sur 0 -- -- 94
2020-01-11 05:00:00 -2.7 8 Sur 11 Sur 0 -- -- 94
2020-01-11 04:00:00 -2.1 5 Sur 11 Sur 0 -- -- 92
2020-01-11 03:00:00 -0.1 0 Calma 6 Sur 0 -- -- 89
2020-01-11 02:00:00 -0.4 3 Sudoeste 7 Sur 0 -- -- 88
2020-01-11 01:00:00 1.2 3 Sur 17 Nordeste 0 -- -- 85
2020-01-11 00:00:00 1.6 6 Nordeste 16 Norte 0 -- -- 88
2020-01-10 23:00:00 1.2 11 Norte 17 Norte 0 -- -- 89
2020-01-10 22:00:00 2.1 6 Nordeste 15 Nordeste 0 -- -- 84
2020-01-10 21:00:00 2.6 5 Nordeste 15 Nordeste 0 -- -- 82
2020-01-10 20:00:00 3.6 6 Nordeste 17 Norte 0 -- -- 79
2020-01-10 19:00:00 4.4 8 Nordeste 21 Nordeste 0 -- -- 76
2020-01-10 18:00:00 6.3 13 Norte 26 Nordeste 0 -- -- 68
2020-01-10 17:00:00 7.4 18 Nordeste 31 Nordeste 0 -- -- 63
2020-01-10 16:00:00 7.6 19 Nordeste 35 Nordeste 0 -- -- 62
2020-01-10 15:00:00 7.6 17 Nordeste 32 Nordeste 0 -- -- 61
2020-01-10 14:00:00 7.1 18 Nordeste 33 Nordeste 0 -- -- 64
2020-01-10 13:00:00 5.7 13 Norte 21 Nordeste 0 -- -- 79
2020-01-10 12:00:00 3 9 Norte 16 Norte 0 -- -- 94
2020-01-10 11:00:00 1.3 9 Norte 13 Norte 0 -- -- 98
2020-01-10 10:00:00 0.3 4 Norte 11 Norte 0 -- -- 97
2020-01-10 09:00:00 0.7 8 Norte 13 Nordeste 0 -- -- 97
2020-01-10 08:00:00 0.1 6 Norte 9 Norte 0 -- -- 96
2020-01-10 07:00:00 0.4 6 Norte 8 Norte 0 -- -- 95
2020-01-10 06:00:00 0.7 5 Norte 8 Norte 0 -- -- 94
2020-01-10 05:00:00 1.2 4 Norte 14 Norte 0 -- -- 92
2020-01-10 04:00:00 1.8 9 Norte 14 Norte 0 -- -- 92
2020-01-10 03:00:00 1.7 7 Norte 13 Norte 0 -- -- 93
2020-01-10 02:00:00 2.6 4 Nordeste 19 Norte 0 -- -- 91
2020-01-10 01:00:00 4.3 10 Norte 17 Norte 0 -- -- 93
2020-01-10 00:00:00 5 12 Noroeste 21 Noroeste 0 -- -- 90
2020-01-09 23:00:00 5.6 10 Noroeste 19 Noroeste 0 -- -- 89
2020-01-09 22:00:00 5.7 12 Noroeste 21 Oeste 0 -- -- 87
2020-01-09 21:00:00 6 8 Noroeste 17 Noroeste 0 -- -- 90
2020-01-09 20:00:00 7.5 14 Noroeste 34 Noroeste 0 -- -- 90
2020-01-09 19:00:00 10 19 Noroeste 36 Noroeste 0 -- -- 89
2020-01-09 18:00:00 11.3 10 Noroeste 26 Noroeste 0 -- -- 80
2020-01-09 17:00:00 12.5 14 Noroeste 22 Noroeste 0 -- -- 80
2020-01-09 16:00:00 12.9 4 Sudoeste 13 Sudeste 0 -- -- 82
2020-01-09 15:00:00 11.8 10 Sudeste 16 Sudeste 0 -- -- 87
2020-01-09 14:00:00 9.6 4 Sur 11 Oeste 0 -- -- 96
2020-01-09 13:00:00 7.8 4 Sur 15 Norte 0 -- -- 96
2020-01-09 12:00:00 8.7 2 Noroeste 9 Norte 0 -- -- 96
2020-01-09 11:00:00 5.3 3 Sur 8 Sudeste 0 -- -- 90
2020-01-09 10:00:00 2.3 5 Sur 18 Sur 0 -- -- 93
2020-01-09 09:00:00 -0.1 10 Sur 17 Sur 0 -- -- 95
2020-01-09 08:00:00 -0.8 9 Sur 14 Sur 0 -- -- 97
2020-01-09 07:00:00 0.7 4 Sudoeste 8 Sur 0 -- -- 96
2020-01-09 06:00:00 -0.1 5 Sur 13 Sur 0 -- -- 98
2020-01-09 05:00:00 -1.1 10 Sur 16 Sur 0.2 -- -- 99
2020-01-09 04:00:00 -0.1 6 Sudeste 13 Sudeste 0 -- -- 99
2020-01-09 03:00:00 -1.2 2 Sur 15 Sudeste 0 -- -- 100
2020-01-09 02:00:00 -1.1 13 Sur 15 Sudeste 0 -- -- 100
2020-01-09 01:00:00 -0.6 7 Sur 11 Sur 0 -- -- 100
2020-01-09 00:00:00 -0.3 0 Calma 10 Sur 0 -- -- 100
2020-01-08 23:00:00 -0.1 7 Sudeste 11 Sur 0 -- -- 99
2020-01-08 22:00:00 0.8 6 Sur 9 Sur 0 -- -- 100
2020-01-08 21:00:00 0.9 6 Sur 8 Sur 0 -- -- 100
2020-01-08 20:00:00 0.8 3 Sur 4 Sur 0 -- -- 99
2020-01-08 19:00:00 0.9 0 Calma 2 Oeste 0 -- -- 100
2020-01-08 18:00:00 1.4 0 Calma 5 Norte 0 -- -- 100
2020-01-08 17:00:00 2.2 4 Norte 8 Noroeste 0 -- -- 100
2020-01-08 16:00:00 1.9 5 Norte 8 Norte 0 -- -- 100
2020-01-08 15:00:00 1.3 5 Norte 9 Norte 0 -- -- 100
2020-01-08 14:00:00 0.1 6 Noroeste 9 Noroeste 0 -- -- 100
2020-01-08 13:00:00 -0.5 3 Norte 5 Noroeste 0 -- -- 99
2020-01-08 12:00:00 -1.5 0 Calma -- -- 0.2 -- -- 100
2020-01-08 11:00:00 -2.5 0 Calma -- -- 0 -- -- 99
2020-01-08 10:00:00 -3 0 Calma -- -- 0 -- -- 99
2020-01-08 09:00:00 -3.1 0 Calma -- -- 0 -- -- 99
2020-01-08 08:00:00 -3 0 Calma -- -- 0 -- -- 99
2020-01-08 07:00:00 -2.7 0 Calma -- -- 0 -- -- 99
2020-01-08 06:00:00 -3.7 0 Calma -- -- 0 -- -- 99
2020-01-08 05:00:00 -3.3 0 Calma -- -- 0 -- -- 98
2020-01-08 04:00:00 -3.4 0 Calma -- -- 0 -- -- 98
2020-01-08 03:00:00 -2.6 0 Calma 6 Sudeste 0 -- -- 99
2020-01-08 02:00:00 -2.2 0 Calma 6 Sudeste 0 -- -- 98
2020-01-08 01:00:00 -1.9 3 Este 4 Este 0 -- -- 98
2020-01-08 00:00:00 -1.9 2 Sur 5 Sur 0 -- -- 98
2020-01-07 23:00:00 -1.3 0 Calma 5 Norte 0 -- -- 98
2020-01-07 22:00:00 -0.3 2 Nordeste 5 Norte 0 -- -- 97
2020-01-07 21:00:00 -0.2 0 Calma 2 Noroeste 0 -- -- 97
2020-01-07 20:00:00 0.6 0 Calma 2 Norte 0 -- -- 96
2020-01-07 19:00:00 1.4 0 Calma 0 Calma 0 -- -- 95
2020-01-07 18:00:00 2.9 0 Calma 7 Norte 0 -- -- 96
2020-01-07 17:00:00 2.9 4 Norte 9 Norte 0 -- -- 99
2020-01-07 16:00:00 2 6 Norte 9 Norte 0 -- -- 100
2020-01-07 15:00:00 0.4 4 Norte 13 Norte 0 -- -- 100
2020-01-07 14:00:00 0.8 5 Norte 10 Norte 0 -- -- 99
2020-01-07 13:00:00 0.2 2 Sur 7 Sur 0 -- -- 100
2020-01-07 12:00:00 -1.6 0 Calma -- -- 0 -- -- 99
2020-01-07 11:00:00 -2.4 0 Calma -- -- 0 -- -- 99
2020-01-07 10:00:00 -2.9 0 Calma -- -- 0 -- -- 99
2020-01-07 09:00:00 -2.7 0 Calma -- -- 0 -- -- 98
2020-01-07 08:00:00 -2.9 0 Calma -- -- 0 -- -- 99
2020-01-07 07:00:00 -3.3 0 Calma -- -- 0 -- -- 98
2020-01-07 06:00:00 -2.8 0 Calma -- -- 0 -- -- 98
2020-01-07 05:00:00 -3 0 Calma 3 Noroeste 0 -- -- 98
2020-01-07 04:00:00 -2.6 4 Noroeste 8 Norte 0 -- -- 98
2020-01-07 03:00:00 -2.5 2 Norte 6 Norte 0 -- -- 97
2020-01-07 02:00:00 -1.5 3 Norte 6 Sur 0 -- -- 97
2020-01-07 01:00:00 -1.1 7 Sur 10 Sudeste 0 -- -- 96
2020-01-07 00:00:00 -0.5 6 Sur 9 Sur 0 -- -- 97
2020-01-06 23:00:00 -0.2 6 Sur 9 Sur 0 -- -- 94
2020-01-06 22:00:00 0.8 2 Norte 3 Norte 0 -- -- 94
2020-01-06 21:00:00 0.9 0 Calma 5 Sudeste 0 -- -- 91
2020-01-06 20:00:00 2.3 0 Calma 5 Norte 0 -- -- 90
2020-01-06 19:00:00 3.6 3 Norte 5 Norte 0 -- -- 86
2020-01-06 18:00:00 5.5 0 Calma 7 Norte 0 -- -- 81
2020-01-06 17:00:00 6.4 5 Norte 13 Norte 0 -- -- 81
2020-01-06 16:00:00 6.5 9 Norte 13 Norte 0.2 -- -- 81
2020-01-06 15:00:00 5.6 7 Norte 14 Norte 0 -- -- 88
2020-01-06 14:00:00 5.9 6 Norte 12 Norte 0 -- -- 91
2020-01-06 13:00:00 4.5 7 Norte 11 Norte 0 -- -- 97
2020-01-06 12:00:00 2.8 3 Sur 10 Sudeste 0 -- -- 100
2020-01-06 11:00:00 -1.4 0 Calma 4 Norte 0 -- -- 100
2020-01-06 10:00:00 -2.5 0 Calma 10 Este 0 -- -- 100